sensor_id;sensor_type;location;lat;lon;timestamp;temperature;humidity
652;DHT22;310;48.490;9.200;2023-02-16T00:01:51;7.50;33.00
652;DHT22;310;48.490;9.200;2023-02-16T00:04:26;7.50;33.10
652;DHT22;310;48.490;9.200;2023-02-16T00:06:52;6.90;33.30
652;DHT22;310;48.490;9.200;2023-02-16T00:09:19;7.00;34.10
652;DHT22;310;48.490;9.200;2023-02-16T00:11:46;6.80;34.10
652;DHT22;310;48.490;9.200;2023-02-16T00:14:33;6.60;34.80
652;DHT22;310;48.490;9.200;2023-02-16T00:17:00;6.60;34.80
652;DHT22;310;48.490;9.200;2023-02-16T00:19:33;6.70;35.60
652;DHT22;310;48.490;9.200;2023-02-16T00:21:59;7.10;34.80
652;DHT22;310;48.490;9.200;2023-02-16T00:24:26;6.80;35.30
652;DHT22;310;48.490;9.200;2023-02-16T00:26:52;6.80;35.40
652;DHT22;310;48.490;9.200;2023-02-16T00:31:43;6.70;37.30
652;DHT22;310;48.490;9.200;2023-02-16T00:34:36;7.10;36.70
652;DHT22;310;48.490;9.200;2023-02-16T00:37:08;7.40;36.70
652;DHT22;310;48.490;9.200;2023-02-16T00:39:34;7.80;35.20
652;DHT22;310;48.490;9.200;2023-02-16T00:42:06;7.90;34.80
652;DHT22;310;48.490;9.200;2023-02-16T00:44:41;7.80;35.20
652;DHT22;310;48.490;9.200;2023-02-16T00:49:45;7.60;34.50
652;DHT22;310;48.490;9.200;2023-02-16T00:54:56;6.30;36.80
652;DHT22;310;48.490;9.200;2023-02-16T00:57:22;6.30;36.00
652;DHT22;310;48.490;9.200;2023-02-16T00:59:55;6.50;36.30
652;DHT22;310;48.490;9.200;2023-02-16T01:02:22;6.60;35.10
652;DHT22;310;48.490;9.200;2023-02-16T01:04:48;6.60;34.80
652;DHT22;310;48.490;9.200;2023-02-16T01:07:14;6.70;34.40
652;DHT22;310;48.490;9.200;2023-02-16T01:09:59;6.60;34.40
652;DHT22;310;48.490;9.200;2023-02-16T01:12:43;6.70;34.90
652;DHT22;310;48.490;9.200;2023-02-16T01:15:12;6.40;35.00
652;DHT22;310;48.490;9.200;2023-02-16T01:17:38;6.20;35.30
652;DHT22;310;48.490;9.200;2023-02-16T01:20:14;6.40;35.60
652;DHT22;310;48.490;9.200;2023-02-16T01:22:40;6.50;35.50
652;DHT22;310;48.490;9.200;2023-02-16T01:25:05;6.60;35.00
652;DHT22;310;48.490;9.200;2023-02-16T01:27:31;6.60;34.90
652;DHT22;310;48.490;9.200;2023-02-16T01:29:57;6.50;35.40
652;DHT22;310;48.490;9.200;2023-02-16T01:32:23;6.50;35.20
652;DHT22;310;48.490;9.200;2023-02-16T01:34:49;6.60;34.50
652;DHT22;310;48.490;9.200;2023-02-16T01:37:15;6.40;35.20
652;DHT22;310;48.490;9.200;2023-02-16T01:39:40;6.50;35.20
652;DHT22;310;48.490;9.200;2023-02-16T01:44:45;6.30;35.10
652;DHT22;310;48.490;9.200;2023-02-16T01:47:33;6.40;35.30
652;DHT22;310;48.490;9.200;2023-02-16T01:50:23;6.20;35.60
652;DHT22;310;48.490;9.200;2023-02-16T01:53:05;6.00;36.20
652;DHT22;310;48.490;9.200;2023-02-16T01:55:41;5.90;36.40
652;DHT22;310;48.490;9.200;2023-02-16T01:58:26;5.70;37.10
652;DHT22;310;48.490;9.200;2023-02-16T02:03:37;5.50;37.20
652;DHT22;310;48.490;9.200;2023-02-16T02:06:31;5.30;38.20
652;DHT22;310;48.490;9.200;2023-02-16T02:09:02;5.60;37.50
652;DHT22;310;48.490;9.200;2023-02-16T02:11:37;5.90;36.40
652;DHT22;310;48.490;9.200;2023-02-16T02:16:31;6.10;35.50
652;DHT22;310;48.490;9.200;2023-02-16T02:18:57;5.90;36.00
652;DHT22;310;48.490;9.200;2023-02-16T02:42:09;5.60;36.90
652;DHT22;310;48.490;9.200;2023-02-16T02:44:58;5.10;38.30
652;DHT22;310;48.490;9.200;2023-02-16T02:47:43;4.10;42.00
652;DHT22;310;48.490;9.200;2023-02-16T02:52:56;4.10;42.90
652;DHT22;310;48.490;9.200;2023-02-16T02:55:22;4.60;40.80
652;DHT22;310;48.490;9.200;2023-02-16T02:58:06;5.00;39.30
652;DHT22;310;48.490;9.200;2023-02-16T03:00:51;5.50;37.40
652;DHT22;310;48.490;9.200;2023-02-16T03:03:27;5.60;36.70
652;DHT22;310;48.490;9.200;2023-02-16T03:08:34;5.40;36.90
652;DHT22;310;48.490;9.200;2023-02-16T03:11:08;5.40;37.00
652;DHT22;310;48.490;9.200;2023-02-16T03:14:01;5.20;37.60
652;DHT22;310;48.490;9.200;2023-02-16T03:16:36;5.20;38.20
652;DHT22;310;48.490;9.200;2023-02-16T03:19:04;5.50;37.10
652;DHT22;310;48.490;9.200;2023-02-16T03:21:50;5.40;37.20
652;DHT22;310;48.490;9.200;2023-02-16T03:24:34;5.10;37.80
652;DHT22;310;48.490;9.200;2023-02-16T03:27:24;5.10;38.50
652;DHT22;310;48.490;9.200;2023-02-16T03:30:10;5.60;36.70
652;DHT22;310;48.490;9.200;2023-02-16T03:32:37;5.10;37.80
652;DHT22;310;48.490;9.200;2023-02-16T03:35:03;5.00;38.30
652;DHT22;310;48.490;9.200;2023-02-16T03:37:30;5.10;38.20
652;DHT22;310;48.490;9.200;2023-02-16T03:39:56;5.50;37.10
652;DHT22;310;48.490;9.200;2023-02-16T03:42:48;5.80;36.10
652;DHT22;310;48.490;9.200;2023-02-16T03:45:13;5.60;36.90
652;DHT22;310;48.490;9.200;2023-02-16T03:47:39;5.70;36.70
652;DHT22;310;48.490;9.200;2023-02-16T03:50:05;5.70;36.50
652;DHT22;310;48.490;9.200;2023-02-16T03:52:31;5.00;37.90
652;DHT22;310;48.490;9.200;2023-02-16T03:54:56;4.60;40.00
652;DHT22;310;48.490;9.200;2023-02-16T03:57:22;4.60;40.10
652;DHT22;310;48.490;9.200;2023-02-16T03:59:47;4.90;39.40
652;DHT22;310;48.490;9.200;2023-02-16T04:02:15;5.10;38.30
652;DHT22;310;48.490;9.200;2023-02-16T04:04:40;5.20;37.90
652;DHT22;310;48.490;9.200;2023-02-16T04:07:06;5.30;37.50
652;DHT22;310;48.490;9.200;2023-02-16T04:09:31;5.40;36.90
652;DHT22;310;48.490;9.200;2023-02-16T04:11:57;5.40;37.00
652;DHT22;310;48.490;9.200;2023-02-16T04:14:41;5.60;37.30
652;DHT22;310;48.490;9.200;2023-02-16T04:17:06;5.50;36.40
652;DHT22;310;48.490;9.200;2023-02-16T04:19:32;5.50;36.40
652;DHT22;310;48.490;9.200;2023-02-16T04:21:58;5.40;36.60
652;DHT22;310;48.490;9.200;2023-02-16T04:24:23;5.10;37.50
652;DHT22;310;48.490;9.200;2023-02-16T04:26:49;5.20;37.40
652;DHT22;310;48.490;9.200;2023-02-16T04:29:15;5.10;37.60
652;DHT22;310;48.490;9.200;2023-02-16T04:31:40;5.20;37.80
652;DHT22;310;48.490;9.200;2023-02-16T04:34:06;5.40;36.80
652;DHT22;310;48.490;9.200;2023-02-16T04:36:31;5.20;37.40
652;DHT22;310;48.490;9.200;2023-02-16T04:38:58;5.30;37.80
652;DHT22;310;48.490;9.200;2023-02-16T04:41:24;5.50;37.00
652;DHT22;310;48.490;9.200;2023-02-16T04:43:51;5.30;37.10
652;DHT22;310;48.490;9.200;2023-02-16T04:46:16;5.40;37.00
652;DHT22;310;48.490;9.200;2023-02-16T04:48:44;5.50;36.70
652;DHT22;310;48.490;9.200;2023-02-16T04:51:09;5.50;37.10
652;DHT22;310;48.490;9.200;2023-02-16T04:53:35;5.50;37.00
652;DHT22;310;48.490;9.200;2023-02-16T04:56:01;5.30;37.20
652;DHT22;310;48.490;9.200;2023-02-16T04:58:26;5.50;37.50
652;DHT22;310;48.490;9.200;2023-02-16T05:00:52;5.50;37.10
652;DHT22;310;48.490;9.200;2023-02-16T05:03:17;5.70;36.70
652;DHT22;310;48.490;9.200;2023-02-16T05:05:43;5.80;36.10
652;DHT22;310;48.490;9.200;2023-02-16T05:08:08;5.90;35.90
652;DHT22;310;48.490;9.200;2023-02-16T05:10:34;5.70;36.00
652;DHT22;310;48.490;9.200;2023-02-16T05:13:00;5.70;36.10
652;DHT22;310;48.490;9.200;2023-02-16T05:15:44;5.80;35.90
652;DHT22;310;48.490;9.200;2023-02-16T05:18:10;5.50;36.50
652;DHT22;310;48.490;9.200;2023-02-16T05:20:36;5.60;36.00
652;DHT22;310;48.490;9.200;2023-02-16T05:23:20;5.40;36.50
652;DHT22;310;48.490;9.200;2023-02-16T05:25:45;5.30;36.90
652;DHT22;310;48.490;9.200;2023-02-16T05:28:11;5.30;37.10
652;DHT22;310;48.490;9.200;2023-02-16T05:30:36;5.30;36.80
652;DHT22;310;48.490;9.200;2023-02-16T05:33:02;5.50;36.60
652;DHT22;310;48.490;9.200;2023-02-16T05:35:27;5.30;36.90
652;DHT22;310;48.490;9.200;2023-02-16T05:37:53;5.30;36.50
652;DHT22;310;48.490;9.200;2023-02-16T05:40:19;5.20;37.00
652;DHT22;310;48.490;9.200;2023-02-16T05:42:44;5.10;37.30
652;DHT22;310;48.490;9.200;2023-02-16T05:45:10;5.10;37.30
652;DHT22;310;48.490;9.200;2023-02-16T05:47:35;5.10;37.40
652;DHT22;310;48.490;9.200;2023-02-16T05:50:01;5.10;37.30
652;DHT22;310;48.490;9.200;2023-02-16T05:52:27;5.30;37.30
652;DHT22;310;48.490;9.200;2023-02-16T05:54:52;5.50;36.80
652;DHT22;310;48.490;9.200;2023-02-16T05:57:18;5.30;36.80
652;DHT22;310;48.490;9.200;2023-02-16T05:59:43;5.00;37.80
652;DHT22;310;48.490;9.200;2023-02-16T06:02:09;4.70;38.30
652;DHT22;310;48.490;9.200;2023-02-16T06:04:34;4.70;38.60
652;DHT22;310;48.490;9.200;2023-02-16T06:07:00;4.90;38.20
652;DHT22;310;48.490;9.200;2023-02-16T06:09:26;4.90;37.70
652;DHT22;310;48.490;9.200;2023-02-16T06:11:52;4.70;38.40
652;DHT22;310;48.490;9.200;2023-02-16T06:14:19;4.90;38.10
652;DHT22;310;48.490;9.200;2023-02-16T06:16:47;5.00;37.20
652;DHT22;310;48.490;9.200;2023-02-16T06:19:15;5.10;37.20
652;DHT22;310;48.490;9.200;2023-02-16T06:21:41;5.00;37.50
652;DHT22;310;48.490;9.200;2023-02-16T06:24:08;5.00;38.30
652;DHT22;310;48.490;9.200;2023-02-16T06:26:34;5.40;37.20
652;DHT22;310;48.490;9.200;2023-02-16T06:28:59;5.30;36.70
652;DHT22;310;48.490;9.200;2023-02-16T06:31:26;5.10;37.60
652;DHT22;310;48.490;9.200;2023-02-16T06:33:53;5.30;37.30
652;DHT22;310;48.490;9.200;2023-02-16T06:36:21;5.30;36.90
652;DHT22;310;48.490;9.200;2023-02-16T06:38:47;5.40;36.60
652;DHT22;310;48.490;9.200;2023-02-16T06:41:13;5.20;38.00
652;DHT22;310;48.490;9.200;2023-02-16T06:44:02;5.20;37.60
652;DHT22;310;48.490;9.200;2023-02-16T06:46:28;5.20;37.10
652;DHT22;310;48.490;9.200;2023-02-16T06:48:54;5.40;37.20
652;DHT22;310;48.490;9.200;2023-02-16T06:51:20;5.30;36.80
652;DHT22;310;48.490;9.200;2023-02-16T06:53:46;5.40;36.80
652;DHT22;310;48.490;9.200;2023-02-16T06:56:12;5.50;36.70
652;DHT22;310;48.490;9.200;2023-02-16T06:58:38;5.40;36.90
652;DHT22;310;48.490;9.200;2023-02-16T07:01:03;5.30;37.00
652;DHT22;310;48.490;9.200;2023-02-16T07:03:29;5.20;37.20
652;DHT22;310;48.490;9.200;2023-02-16T07:05:54;5.10;37.60
652;DHT22;310;48.490;9.200;2023-02-16T07:08:20;4.70;38.10
652;DHT22;310;48.490;9.200;2023-02-16T07:10:46;4.40;39.20
652;DHT22;310;48.490;9.200;2023-02-16T07:13:12;4.40;39.60
652;DHT22;310;48.490;9.200;2023-02-16T07:15:37;4.60;38.80
652;DHT22;310;48.490;9.200;2023-02-16T07:18:03;4.90;37.90
652;DHT22;310;48.490;9.200;2023-02-16T07:20:29;5.20;38.80
652;DHT22;310;48.490;9.200;2023-02-16T07:22:55;5.00;37.80
652;DHT22;310;48.490;9.200;2023-02-16T07:25:20;5.20;37.70
652;DHT22;310;48.490;9.200;2023-02-16T07:27:46;5.00;38.00
652;DHT22;310;48.490;9.200;2023-02-16T07:30:12;5.40;37.60
652;DHT22;310;48.490;9.200;2023-02-16T07:32:41;5.50;37.30
652;DHT22;310;48.490;9.200;2023-02-16T07:35:06;5.50;37.50
652;DHT22;310;48.490;9.200;2023-02-16T07:37:32;5.50;37.20
652;DHT22;310;48.490;9.200;2023-02-16T07:39:58;5.40;37.80
652;DHT22;310;48.490;9.200;2023-02-16T07:42:23;5.60;37.40
652;DHT22;310;48.490;9.200;2023-02-16T07:44:49;5.60;37.50
652;DHT22;310;48.490;9.200;2023-02-16T07:47:14;5.60;37.60
652;DHT22;310;48.490;9.200;2023-02-16T07:49:40;5.80;37.30
652;DHT22;310;48.490;9.200;2023-02-16T07:52:06;6.00;36.80
652;DHT22;310;48.490;9.200;2023-02-16T07:54:32;6.10;36.90
652;DHT22;310;48.490;9.200;2023-02-16T07:56:57;6.10;38.00
652;DHT22;310;48.490;9.200;2023-02-16T07:59:23;6.10;36.30
652;DHT22;310;48.490;9.200;2023-02-16T08:01:48;6.20;36.70
652;DHT22;310;48.490;9.200;2023-02-16T08:04:14;6.40;36.50
652;DHT22;310;48.490;9.200;2023-02-16T08:06:39;6.60;35.80
652;DHT22;310;48.490;9.200;2023-02-16T08:09:05;6.80;35.20
652;DHT22;310;48.490;9.200;2023-02-16T08:11:31;6.30;35.70
652;DHT22;310;48.490;9.200;2023-02-16T08:13:58;6.20;36.80
652;DHT22;310;48.490;9.200;2023-02-16T08:16:26;6.40;35.80
652;DHT22;310;48.490;9.200;2023-02-16T08:18:54;6.70;35.80
652;DHT22;310;48.490;9.200;2023-02-16T08:21:22;6.30;36.10
652;DHT22;310;48.490;9.200;2023-02-16T08:24:06;5.60;38.40
652;DHT22;310;48.490;9.200;2023-02-16T08:26:35;5.70;38.80
652;DHT22;310;48.490;9.200;2023-02-16T08:29:04;5.80;37.50
652;DHT22;310;48.490;9.200;2023-02-16T08:31:32;5.70;38.60
652;DHT22;310;48.490;9.200;2023-02-16T08:34:00;6.10;36.70
652;DHT22;310;48.490;9.200;2023-02-16T08:36:29;6.30;36.50
652;DHT22;310;48.490;9.200;2023-02-16T08:38:57;6.40;35.90
652;DHT22;310;48.490;9.200;2023-02-16T08:41:26;6.20;36.90
652;DHT22;310;48.490;9.200;2023-02-16T08:43:54;6.30;36.20
652;DHT22;310;48.490;9.200;2023-02-16T08:46:20;6.40;36.50
652;DHT22;310;48.490;9.200;2023-02-16T08:48:47;6.60;36.00
652;DHT22;310;48.490;9.200;2023-02-16T08:51:17;7.20;34.80
652;DHT22;310;48.490;9.200;2023-02-16T08:53:45;7.50;33.40
652;DHT22;310;48.490;9.200;2023-02-16T08:56:11;7.70;33.10
652;DHT22;310;48.490;9.200;2023-02-16T08:58:37;7.80;33.00
652;DHT22;310;48.490;9.200;2023-02-16T09:01:06;7.80;34.00
652;DHT22;310;48.490;9.200;2023-02-16T09:03:37;7.40;34.00
652;DHT22;310;48.490;9.200;2023-02-16T09:06:05;7.40;34.40
652;DHT22;310;48.490;9.200;2023-02-16T09:08:32;7.90;33.20
652;DHT22;310;48.490;9.200;2023-02-16T09:11:01;8.10;32.40
652;DHT22;310;48.490;9.200;2023-02-16T09:13:27;8.40;32.10
652;DHT22;310;48.490;9.200;2023-02-16T09:15:53;8.20;32.30
652;DHT22;310;48.490;9.200;2023-02-16T09:18:18;6.40;31.40
652;DHT22;310;48.490;9.200;2023-02-16T09:20:44;8.10;33.20
652;DHT22;310;48.490;9.200;2023-02-16T09:23:10;7.90;33.50
652;DHT22;310;48.490;9.200;2023-02-16T09:25:38;8.40;32.20
652;DHT22;310;48.490;9.200;2023-02-16T09:28:05;8.60;32.10
652;DHT22;310;48.490;9.200;2023-02-16T09:30:31;8.40;32.00
652;DHT22;310;48.490;9.200;2023-02-16T09:32:58;8.50;32.00
652;DHT22;310;48.490;9.200;2023-02-16T09:35:24;8.90;31.70
652;DHT22;310;48.490;9.200;2023-02-16T09:37:50;9.40;30.20
652;DHT22;310;48.490;9.200;2023-02-16T09:40:16;9.90;29.90
652;DHT22;310;48.490;9.200;2023-02-16T09:45:18;10.20;28.00
652;DHT22;310;48.490;9.200;2023-02-16T09:47:47;10.10;28.00
652;DHT22;310;48.490;9.200;2023-02-16T09:50:21;10.00;28.30
652;DHT22;310;48.490;9.200;2023-02-16T09:53:04;9.80;29.20
652;DHT22;310;48.490;9.200;2023-02-16T09:55:53;10.20;28.50
652;DHT22;310;48.490;9.200;2023-02-16T09:58:32;10.40;28.00
652;DHT22;310;48.490;9.200;2023-02-16T10:06:23;11.10;27.20
652;DHT22;310;48.490;9.200;2023-02-16T10:09:02;11.50;26.50
652;DHT22;310;48.490;9.200;2023-02-16T10:11:37;11.80;26.00
652;DHT22;310;48.490;9.200;2023-02-16T10:17:13;12.30;24.90
652;DHT22;310;48.490;9.200;2023-02-16T10:19:54;12.40;25.60
652;DHT22;310;48.490;9.200;2023-02-16T10:22:50;12.20;24.90
652;DHT22;310;48.490;9.200;2023-02-16T10:25:36;11.90;25.20
652;DHT22;310;48.490;9.200;2023-02-16T10:28:28;11.90;25.70
652;DHT22;310;48.490;9.200;2023-02-16T10:34:00;11.70;26.00
652;DHT22;310;48.490;9.200;2023-02-16T10:39:11;12.70;24.90
652;DHT22;310;48.490;9.200;2023-02-16T10:41:44;12.90;24.40
652;DHT22;310;48.490;9.200;2023-02-16T10:44:30;13.00;25.20
652;DHT22;310;48.490;9.200;2023-02-16T10:47:02;12.90;25.20
652;DHT22;310;48.490;9.200;2023-02-16T10:49:30;12.70;25.70
652;DHT22;310;48.490;9.200;2023-02-16T10:51:58;13.40;25.40
652;DHT22;310;48.490;9.200;2023-02-16T10:54:30;13.30;24.30
652;DHT22;310;48.490;9.200;2023-02-16T10:57:05;13.30;23.90
652;DHT22;310;48.490;9.200;2023-02-16T10:59:40;13.30;24.40
652;DHT22;310;48.490;9.200;2023-02-16T11:02:44;13.50;24.10
652;DHT22;310;48.490;9.200;2023-02-16T11:05:29;14.40;22.50
652;DHT22;310;48.490;9.200;2023-02-16T11:07:58;14.50;22.50
652;DHT22;310;48.490;9.200;2023-02-16T11:13:04;14.80;21.30
652;DHT22;310;48.490;9.200;2023-02-16T11:15:38;16.00;19.90
652;DHT22;310;48.490;9.200;2023-02-16T11:18:07;16.30;18.10
652;DHT22;310;48.490;9.200;2023-02-16T11:28:40;18.00;17.80
652;DHT22;310;48.490;9.200;2023-02-16T11:33:54;19.20;17.20
652;DHT22;310;48.490;9.200;2023-02-16T11:39:19;19.80;14.90
652;DHT22;310;48.490;9.200;2023-02-16T11:41:54;20.20;13.80
652;DHT22;310;48.490;9.200;2023-02-16T11:44:37;19.80;12.70
652;DHT22;310;48.490;9.200;2023-02-16T11:47:19;21.10;12.40
652;DHT22;310;48.490;9.200;2023-02-16T11:49:48;20.20;12.40
652;DHT22;310;48.490;9.200;2023-02-16T11:54:52;18.60;14.40
652;DHT22;310;48.490;9.200;2023-02-16T11:57:32;17.40;14.80
652;DHT22;310;48.490;9.200;2023-02-16T12:00:05;17.60;14.40
652;DHT22;310;48.490;9.200;2023-02-16T12:05:51;19.20;13.00
652;DHT22;310;48.490;9.200;2023-02-16T12:14:09;18.70;13.00
652;DHT22;310;48.490;9.200;2023-02-16T12:19:47;17.10;14.10
652;DHT22;310;48.490;9.200;2023-02-16T12:22:32;17.30;14.40
652;DHT22;310;48.490;9.200;2023-02-16T12:27:56;18.40;13.30
652;DHT22;310;48.490;9.200;2023-02-16T12:46:18;19.40;13.30
652;DHT22;310;48.490;9.200;2023-02-16T12:49:10;19.10;13.10
652;DHT22;310;48.490;9.200;2023-02-16T12:51:42;19.70;12.50
652;DHT22;310;48.490;9.200;2023-02-16T12:54:17;18.90;11.60
652;DHT22;310;48.490;9.200;2023-02-16T12:57:09;18.40;12.60
652;DHT22;310;48.490;9.200;2023-02-16T12:59:50;18.20;12.50
652;DHT22;310;48.490;9.200;2023-02-16T13:02:37;18.10;12.70
652;DHT22;310;48.490;9.200;2023-02-16T13:05:35;18.50;12.00
652;DHT22;310;48.490;9.200;2023-02-16T13:08:14;18.40;12.80
652;DHT22;310;48.490;9.200;2023-02-16T13:13:20;17.20;13.40
652;DHT22;310;48.490;9.200;2023-02-16T13:16:00;17.50;13.70
652;DHT22;310;48.490;9.200;2023-02-16T13:18:32;17.60;13.20
652;DHT22;310;48.490;9.200;2023-02-16T13:21:09;16.90;14.80
652;DHT22;310;48.490;9.200;2023-02-16T13:26:31;17.50;14.60
652;DHT22;310;48.490;9.200;2023-02-16T13:29:30;18.50;13.50
652;DHT22;310;48.490;9.200;2023-02-16T13:32:22;18.80;13.20
652;DHT22;310;48.490;9.200;2023-02-16T13:40:50;19.70;12.20
652;DHT22;310;48.490;9.200;2023-02-16T13:43:32;20.50;12.30
652;DHT22;310;48.490;9.200;2023-02-16T13:46:01;19.90;12.20
652;DHT22;310;48.490;9.200;2023-02-16T13:48:36;19.00;12.70
652;DHT22;310;48.490;9.200;2023-02-16T13:51:08;19.30;13.20
652;DHT22;310;48.490;9.200;2023-02-16T13:53:38;19.70;12.50
652;DHT22;310;48.490;9.200;2023-02-16T13:56:30;20.30;12.10
652;DHT22;310;48.490;9.200;2023-02-16T13:58:58;20.80;11.80
652;DHT22;310;48.490;9.200;2023-02-16T14:03:56;21.70;11.10
652;DHT22;310;48.490;9.200;2023-02-16T14:20:09;21.10;10.80
652;DHT22;310;48.490;9.200;2023-02-16T14:22:51;19.80;12.10
652;DHT22;310;48.490;9.200;2023-02-16T14:27:56;20.30;12.30
652;DHT22;310;48.490;9.200;2023-02-16T14:38:30;19.80;12.90
652;DHT22;310;48.490;9.200;2023-02-16T14:41:04;18.80;13.80
652;DHT22;310;48.490;9.200;2023-02-16T14:43:39;17.80;15.30
652;DHT22;310;48.490;9.200;2023-02-16T14:49:37;16.80;16.90
652;DHT22;310;48.490;9.200;2023-02-16T14:52:20;17.00;16.50
652;DHT22;310;48.490;9.200;2023-02-16T14:55:20;16.50;16.90
652;DHT22;310;48.490;9.200;2023-02-16T15:00:51;15.30;18.70
652;DHT22;310;48.490;9.200;2023-02-16T15:03:22;15.50;18.80
652;DHT22;310;48.490;9.200;2023-02-16T15:05:59;15.60;18.50
652;DHT22;310;48.490;9.200;2023-02-16T15:08:33;15.70;18.40
652;DHT22;310;48.490;9.200;2023-02-16T15:11:03;15.50;18.80
652;DHT22;310;48.490;9.200;2023-02-16T15:13:37;15.50;18.90
652;DHT22;310;48.490;9.200;2023-02-16T15:16:04;15.30;19.00
652;DHT22;310;48.490;9.200;2023-02-16T15:18:37;15.10;19.40
652;DHT22;310;48.490;9.200;2023-02-16T15:21:04;15.20;19.50
652;DHT22;310;48.490;9.200;2023-02-16T15:23:33;15.90;18.40
652;DHT22;310;48.490;9.200;2023-02-16T15:26:03;15.50;18.80
652;DHT22;310;48.490;9.200;2023-02-16T15:28:31;15.80;18.70
652;DHT22;310;48.490;9.200;2023-02-16T15:31:15;15.70;18.40
652;DHT22;310;48.490;9.200;2023-02-16T15:33:52;15.50;18.60
652;DHT22;310;48.490;9.200;2023-02-16T15:36:20;15.30;18.90
652;DHT22;310;48.490;9.200;2023-02-16T15:38:58;15.50;18.70
652;DHT22;310;48.490;9.200;2023-02-16T15:41:31;15.10;19.30
652;DHT22;310;48.490;9.200;2023-02-16T15:43:59;15.50;18.80
652;DHT22;310;48.490;9.200;2023-02-16T15:46:31;16.20;18.30
652;DHT22;310;48.490;9.200;2023-02-16T15:51:36;17.20;16.70
652;DHT22;310;48.490;9.200;2023-02-16T15:54:29;17.60;16.20
652;DHT22;310;48.490;9.200;2023-02-16T15:56:58;17.90;15.90
652;DHT22;310;48.490;9.200;2023-02-16T15:59:36;17.80;15.70
652;DHT22;310;48.490;9.200;2023-02-16T16:04:43;17.50;16.80
652;DHT22;310;48.490;9.200;2023-02-16T16:07:33;17.30;16.30
652;DHT22;310;48.490;9.200;2023-02-16T16:10:02;16.80;16.80
652;DHT22;310;48.490;9.200;2023-02-16T16:12:29;16.90;17.00
652;DHT22;310;48.490;9.200;2023-02-16T16:14:59;17.10;16.80
652;DHT22;310;48.490;9.200;2023-02-16T16:17:32;17.00;16.60
652;DHT22;310;48.490;9.200;2023-02-16T16:22:42;16.80;16.60
652;DHT22;310;48.490;9.200;2023-02-16T16:25:29;16.50;17.00
652;DHT22;310;48.490;9.200;2023-02-16T16:27:57;16.90;17.00
652;DHT22;310;48.490;9.200;2023-02-16T16:33:05;16.70;18.90
652;DHT22;310;48.490;9.200;2023-02-16T16:35:37;16.70;16.80
652;DHT22;310;48.490;9.200;2023-02-16T16:38:51;16.40;16.90
652;DHT22;310;48.490;9.200;2023-02-16T16:40:56;16.70;17.70
652;DHT22;310;48.490;9.200;2023-02-16T16:43:31;16.60;18.10
652;DHT22;310;48.490;9.200;2023-02-16T16:46:13;16.80;17.30
652;DHT22;310;48.490;9.200;2023-02-16T16:48:47;16.70;18.40
652;DHT22;310;48.490;9.200;2023-02-16T16:51:14;16.50;19.60
652;DHT22;310;48.490;9.200;2023-02-16T16:53:49;16.10;18.60
652;DHT22;310;48.490;9.200;2023-02-16T16:56:17;16.20;18.20
652;DHT22;310;48.490;9.200;2023-02-16T16:58:47;16.00;19.60
652;DHT22;310;48.490;9.200;2023-02-16T17:01:13;15.90;19.90
652;DHT22;310;48.490;9.200;2023-02-16T17:03:40;16.00;18.90
652;DHT22;310;48.490;9.200;2023-02-16T17:06:06;16.00;17.70
652;DHT22;310;48.490;9.200;2023-02-16T17:08:33;16.10;19.00
652;DHT22;310;48.490;9.200;2023-02-16T17:10:59;16.10;18.70
652;DHT22;310;48.490;9.200;2023-02-16T17:13:25;16.20;18.30
652;DHT22;310;48.490;9.200;2023-02-16T17:16:09;15.90;20.00
652;DHT22;310;48.490;9.200;2023-02-16T17:18:37;16.00;18.90
652;DHT22;310;48.490;9.200;2023-02-16T17:21:04;16.00;19.20
652;DHT22;310;48.490;9.200;2023-02-16T17:23:30;16.10;19.10
652;DHT22;310;48.490;9.200;2023-02-16T17:25:55;16.30;18.70
652;DHT22;310;48.490;9.200;2023-02-16T17:28:21;16.20;19.20
652;DHT22;310;48.490;9.200;2023-02-16T17:30:47;16.20;19.20
652;DHT22;310;48.490;9.200;2023-02-16T17:33:13;15.90;20.50
652;DHT22;310;48.490;9.200;2023-02-16T17:35:40;15.70;19.80
652;DHT22;310;48.490;9.200;2023-02-16T17:38:17;15.60;20.60
652;DHT22;310;48.490;9.200;2023-02-16T17:40:46;15.50;20.50
652;DHT22;310;48.490;9.200;2023-02-16T17:43:13;15.70;20.30
652;DHT22;310;48.490;9.200;2023-02-16T17:45:39;15.30;21.50
652;DHT22;310;48.490;9.200;2023-02-16T17:48:05;15.20;21.60
652;DHT22;310;48.490;9.200;2023-02-16T17:50:31;15.50;20.60
652;DHT22;310;48.490;9.200;2023-02-16T17:52:57;15.40;20.90
652;DHT22;310;48.490;9.200;2023-02-16T17:55:24;15.40;20.50
652;DHT22;310;48.490;9.200;2023-02-16T17:57:49;15.60;20.10
652;DHT22;310;48.490;9.200;2023-02-16T18:00:18;15.70;20.10
652;DHT22;310;48.490;9.200;2023-02-16T18:02:44;15.60;20.30
652;DHT22;310;48.490;9.200;2023-02-16T18:05:09;15.50;20.50
652;DHT22;310;48.490;9.200;2023-02-16T18:07:35;15.60;20.20
652;DHT22;310;48.490;9.200;2023-02-16T18:10:01;15.60;19.80
652;DHT22;310;48.490;9.200;2023-02-16T18:12:26;15.80;19.90
652;DHT22;310;48.490;9.200;2023-02-16T18:14:52;15.90;19.70
652;DHT22;310;48.490;9.200;2023-02-16T18:17:17;16.30;19.90
652;DHT22;310;48.490;9.200;2023-02-16T18:19:43;16.00;20.40
652;DHT22;310;48.490;9.200;2023-02-16T18:22:09;15.40;21.30
652;DHT22;310;48.490;9.200;2023-02-16T18:24:35;15.50;21.10
652;DHT22;310;48.490;9.200;2023-02-16T18:27:00;15.50;21.00
652;DHT22;310;48.490;9.200;2023-02-16T18:29:26;15.60;20.80
652;DHT22;310;48.490;9.200;2023-02-16T18:31:51;15.70;21.20
652;DHT22;310;48.490;9.200;2023-02-16T18:34:17;15.70;20.90
652;DHT22;310;48.490;9.200;2023-02-16T18:36:43;15.60;21.20
652;DHT22;310;48.490;9.200;2023-02-16T18:39:09;15.50;22.00
652;DHT22;310;48.490;9.200;2023-02-16T18:41:35;15.60;21.80
652;DHT22;310;48.490;9.200;2023-02-16T18:44:01;15.30;21.60
652;DHT22;310;48.490;9.200;2023-02-16T18:46:27;15.40;21.80
652;DHT22;310;48.490;9.200;2023-02-16T18:48:52;15.40;21.50
652;DHT22;310;48.490;9.200;2023-02-16T18:51:18;15.50;21.60
652;DHT22;310;48.490;9.200;2023-02-16T18:53:47;15.40;21.60
652;DHT22;310;48.490;9.200;2023-02-16T18:56:13;15.20;22.50
652;DHT22;310;48.490;9.200;2023-02-16T18:58:39;14.90;22.30
652;DHT22;310;48.490;9.200;2023-02-16T19:03:48;14.70;22.80
652;DHT22;310;48.490;9.200;2023-02-16T19:06:13;14.80;22.60
652;DHT22;310;48.490;9.200;2023-02-16T19:08:39;14.80;22.20
652;DHT22;310;48.490;9.200;2023-02-16T19:11:04;14.90;22.30
652;DHT22;310;48.490;9.200;2023-02-16T19:13:30;14.30;23.00
652;DHT22;310;48.490;9.200;2023-02-16T19:15:55;14.20;24.20
652;DHT22;310;48.490;9.200;2023-02-16T19:18:21;14.00;23.90
652;DHT22;310;48.490;9.200;2023-02-16T19:20:47;14.30;23.10
652;DHT22;310;48.490;9.200;2023-02-16T19:23:12;14.10;24.20
652;DHT22;310;48.490;9.200;2023-02-16T19:25:38;14.00;24.30
652;DHT22;310;48.490;9.200;2023-02-16T19:28:04;14.20;24.10
652;DHT22;310;48.490;9.200;2023-02-16T19:30:29;14.30;24.40
652;DHT22;310;48.490;9.200;2023-02-16T19:32:55;14.20;25.00
652;DHT22;310;48.490;9.200;2023-02-16T19:35:21;14.40;24.00
652;DHT22;310;48.490;9.200;2023-02-16T19:37:46;14.50;24.40
652;DHT22;310;48.490;9.200;2023-02-16T19:40:13;14.40;23.90
652;DHT22;310;48.490;9.200;2023-02-16T19:42:39;14.50;23.60
652;DHT22;310;48.490;9.200;2023-02-16T19:45:05;14.80;22.90
652;DHT22;310;48.490;9.200;2023-02-16T19:47:31;14.50;24.50
652;DHT22;310;48.490;9.200;2023-02-16T19:49:57;14.60;24.20
652;DHT22;310;48.490;9.200;2023-02-16T19:52:22;14.60;23.40